Time;durP1;ratioP1;P1;durP2;ratioP2;P2;SDS_P1;SDS_P2;PMS_P1;PMS_P2;Temp;Humidity;BMP_temperature;BMP_pressure;BME280_temperature;BME280_humidity;BME280_pressure;Samples;Min_cycle;Max_cycle;Signal;HPM_P1;HPM_P2
2023/10/12 00:00:27;;;;;;;24.40;14.13;;;;;;;;;;5066212;27;98882;-72
2023/10/12 00:02:57;;;;;;;29.65;14.98;;;;;;;;;;5070132;27;98239;-71
2023/10/12 00:05:27;;;;;;;36.70;14.48;;;;;;;;;;5067779;27;100095;-73
2023/10/12 00:07:55;;;;;;;29.88;14.00;;;;;;;;;;5067772;27;98802;-73
2023/10/12 00:10:22;;;;;;;28.40;14.40;;;;;;;;;;5066685;27;98555;-73
2023/10/12 00:12:50;;;;;;;33.05;14.07;;;;;;;;;;5067635;27;100034;-73
2023/10/12 00:17:44;;;;;;;33.58;14.05;;;;;;;;;;5067752;27;99169;-73
2023/10/12 00:20:21;;;;;;;29.98;14.85;;;;;;;;;;5067695;27;100042;-72
2023/10/12 00:22:47;;;;;;;28.02;14.75;;;;;;;;;;5067314;27;98314;-72
2023/10/12 00:25:17;;;;;;;26.55;14.95;;;;;;;;;;5070063;27;99567;-73
2023/10/12 00:27:43;;;;;;;28.77;14.85;;;;;;;;;;5067751;27;98242;-73
2023/10/12 00:30:12;;;;;;;32.67;15.52;;;;;;;;;;5067042;27;98516;-72
2023/10/12 00:32:39;;;;;;;34.85;15.80;;;;;;;;;;5067555;27;99133;-73
2023/10/12 00:35:08;;;;;;;31.50;15.50;;;;;;;;;;5067147;27;98219;-73
2023/10/12 00:37:34;;;;;;;30.40;15.52;;;;;;;;;;5066412;27;99385;-73
2023/10/12 00:40:25;;;;;;;26.45;14.07;;;;;;;;;;5066173;27;100858;-73
2023/10/12 00:42:51;;;;;;;31.75;15.15;;;;;;;;;;5045428;27;98336;-73
2023/10/12 00:45:29;;;;;;;36.70;15.07;;;;;;;;;;5046455;27;98302;-73
2023/10/12 00:48:06;;;;;;;33.20;14.73;;;;;;;;;;5050564;27;98766;-72
2023/10/12 00:50:35;;;;;;;36.55;16.38;;;;;;;;;;5044821;27;98456;-73
2023/10/12 00:53:21;;;;;;;24.38;15.00;;;;;;;;;;5046449;27;98644;-73
2023/10/12 00:55:49;;;;;;;33.55;15.95;;;;;;;;;;5052553;27;98650;-73
2023/10/12 00:58:17;;;;;;;33.35;16.20;;;;;;;;;;5064295;27;98719;-73
2023/10/12 01:00:51;;;;;;;32.15;15.23;;;;;;;;;;5067446;27;98851;-73
2023/10/12 01:03:35;;;;;;;32.55;15.05;;;;;;;;;;5098105;27;98753;-73
2023/10/12 01:08:35;;;;;;;23.63;9.82;;;;;;;;;;5066920;27;99093;-73
2023/10/12 01:11:06;;;;;;;12.63;7.32;;;;;;;;;;5070731;27;98030;-72
2023/10/12 01:13:33;;;;;;;15.82;7.28;;;;;;;;;;5066745;27;98835;-73
2023/10/12 01:16:20;;;;;;;17.70;8.20;;;;;;;;;;5066697;27;98157;-72
2023/10/12 01:18:47;;;;;;;16.48;7.13;;;;;;;;;;5065616;27;98668;-72
2023/10/12 01:21:14;;;;;;;17.50;6.65;;;;;;;;;;5066376;27;98823;-72
2023/10/12 01:23:41;;;;;;;16.02;5.88;;;;;;;;;;5066051;27;98263;-72
2023/10/12 01:26:10;;;;;;;14.88;6.57;;;;;;;;;;5066204;27;98276;-72
2023/10/12 01:28:38;;;;;;;13.23;6.70;;;;;;;;;;5066744;27;99087;-72
2023/10/12 01:31:04;;;;;;;12.48;6.22;;;;;;;;;;5085284;27;98239;-72
2023/10/12 01:33:31;;;;;;;14.80;7.13;;;;;;;;;;5086530;27;98765;-71
2023/10/12 01:35:58;;;;;;;21.40;6.78;;;;;;;;;;5087920;27;98168;-71
2023/10/12 01:38:27;;;;;;;19.83;7.20;;;;;;;;;;5086475;27;100291;-72
2023/10/12 01:40:55;;;;;;;14.80;6.78;;;;;;;;;;5085664;27;99434;-72
2023/10/12 01:43:23;;;;;;;18.27;7.72;;;;;;;;;;5087316;27;98230;-72
2023/10/12 01:45:59;;;;;;;22.55;6.57;;;;;;;;;;5078893;27;98937;-72
2023/10/12 01:48:33;;;;;;;15.77;6.88;;;;;;;;;;5067302;27;98990;-72
2023/10/12 01:51:14;;;;;;;8.43;4.97;;;;;;;;;;5103251;27;98282;-71
2023/10/12 01:53:41;;;;;;;4.80;3.13;;;;;;;;;;5073830;27;98486;-72
2023/10/12 01:56:10;;;;;;;3.95;2.63;;;;;;;;;;5068185;27;98712;-72
2023/10/12 01:58:43;;;;;;;3.58;1.40;;;;;;;;;;5068938;27;99398;-73
2023/10/12 02:01:18;;;;;;;1.40;1.30;;;;;;;;;;5093855;27;100995;-72
2023/10/12 02:03:45;;;;;;;4.78;2.28;;;;;;;;;;5052576;27;98958;-72
2023/10/12 02:06:16;;;;;;;2.17;2.08;;;;;;;;;;5054972;27;100401;-72
2023/10/12 02:08:49;;;;;;;1.45;1.38;;;;;;;;;;5052925;27;99930;-72
2023/10/12 02:13:54;;;;;;;2.00;1.65;;;;;;;;;;5047605;27;98351;-72
2023/10/12 02:16:24;;;;;;;3.15;1.50;;;;;;;;;;5061277;27;100406;-72
2023/10/12 02:18:53;;;;;;;2.67;1.17;;;;;;;;;;5058179;27;100622;-72
2023/10/12 02:21:22;;;;;;;3.92;1.70;;;;;;;;;;5052306;27;99941;-72
2023/10/12 02:26:37;;;;;;;1.63;1.27;;;;;;;;;;5085891;27;100738;-72
2023/10/12 02:31:38;;;;;;;2.35;1.30;;;;;;;;;;5084928;27;99528;-72
2023/10/12 02:34:17;;;;;;;2.20;1.40;;;;;;;;;;5058711;27;98338;-70
2023/10/12 02:39:43;;;;;;;1.40;1.30;;;;;;;;;;5026451;27;100361;-72
2023/10/12 02:47:23;;;;;;;4.28;1.17;;;;;;;;;;5060008;27;100056;-73
2023/10/12 02:49:50;;;;;;;1.88;1.38;;;;;;;;;;5069815;27;99929;-71
2023/10/12 02:52:18;;;;;;;2.58;1.50;;;;;;;;;;5057618;27;98375;-71
2023/10/12 02:54:51;;;;;;;2.58;2.03;;;;;;;;;;5058891;27;98480;-73
2023/10/12 02:59:57;;;;;;;3.20;2.45;;;;;;;;;;5051508;27;98452;-71
2023/10/12 03:02:32;;;;;;;1.88;1.77;;;;;;;;;;5059414;27;98806;-72
2023/10/12 03:05:09;;;;;;;5.60;2.10;;;;;;;;;;5060642;27;99734;-71
2023/10/12 03:07:39;;;;;;;3.05;2.40;;;;;;;;;;5052534;27;99543;-71
2023/10/12 03:10:07;;;;;;;5.50;2.42;;;;;;;;;;5050347;27;99664;-71
2023/10/12 03:12:36;;;;;;;4.70;2.97;;;;;;;;;;5052113;27;100385;-71
2023/10/12 03:15:12;;;;;;;3.53;2.80;;;;;;;;;;5052830;27;100093;-72
2023/10/12 03:17:42;;;;;;;3.53;2.60;;;;;;;;;;5056026;27;101023;-72
2023/10/12 03:20:22;;;;;;;4.15;2.72;;;;;;;;;;5057610;27;100429;-74
2023/10/12 03:22:52;;;;;;;4.22;2.90;;;;;;;;;;5052538;27;98487;-72
2023/10/12 03:25:19;;;;;;;4.07;3.45;;;;;;;;;;5058416;27;100414;-74
2023/10/12 03:27:53;;;;;;;9.63;3.75;;;;;;;;;;5056772;27;100344;-72
2023/10/12 03:30:34;;;;;;;4.00;3.60;;;;;;;;;;5054765;27;100579;-72
2023/10/12 03:33:09;;;;;;;3.63;3.33;;;;;;;;;;5050978;27;98673;-72
2023/10/12 03:35:44;;;;;;;4.00;3.20;;;;;;;;;;5053567;27;99227;-71
2023/10/12 03:38:14;;;;;;;7.95;3.60;;;;;;;;;;5054449;27;99708;-72
2023/10/12 03:40:50;;;;;;;4.95;2.78;;;;;;;;;;5055914;27;98386;-71
2023/10/12 03:43:26;;;;;;;7.70;3.67;;;;;;;;;;5053686;27;99639;-71
2023/10/12 03:46:17;;;;;;;5.40;2.92;;;;;;;;;;5061440;27;99565;-72
2023/10/12 03:51:25;;;;;;;4.65;2.70;;;;;;;;;;5058067;27;99972;-71
2023/10/12 03:54:04;;;;;;;3.30;3.00;;;;;;;;;;5055687;27;99502;-73
2023/10/12 03:56:38;;;;;;;5.03;2.17;;;;;;;;;;5054362;27;99326;-74
2023/10/12 03:59:08;;;;;;;3.25;2.50;;;;;;;;;;5050645;27;99010;-73
2023/10/12 04:01:40;;;;;;;2.67;2.25;;;;;;;;;;5049377;27;98578;-74
2023/10/12 04:04:21;;;;;;;2.88;2.38;;;;;;;;;;5052552;27;99913;-74
2023/10/12 04:07:15;;;;;;;2.30;2.10;;;;;;;;;;5048620;27;99927;-75
2023/10/12 04:09:43;;;;;;;2.75;2.30;;;;;;;;;;5058532;27;99261;-74
2023/10/12 04:12:29;;;;;;;3.15;2.40;;;;;;;;;;5049365;27;101789;-73
2023/10/12 04:14:58;;;;;;;3.65;2.22;;;;;;;;;;5051767;27;98881;-73
2023/10/12 04:20:14;;;;;;;4.53;2.38;;;;;;;;;;5050248;27;98841;-72
2023/10/12 04:25:32;;;;;;;3.33;2.05;;;;;;;;;;5049010;27;99647;-74
2023/10/12 04:30:32;;;;;;;7.57;2.10;;;;;;;;;;5047526;27;100473;-74
2023/10/12 04:33:13;;;;;;;;;;;;;;;;;;5054460;27;100520;-73
2023/10/12 04:43:36;;;;;;;3.05;1.58;;;;;;;;;;5051108;27;99510;-73
2023/10/12 04:48:41;;;;;;;1.38;1.27;;;;;;;;;;5052344;27;99652;-73
2023/10/12 04:51:08;;;;;;;2.08;1.67;;;;;;;;;;5053873;27;98770;-73
2023/10/12 04:56:23;;;;;;;4.40;1.80;;;;;;;;;;5052971;27;99663;-73
2023/10/12 04:58:59;;;;;;;1.80;1.70;;;;;;;;;;5051102;27;99695;-75
2023/10/12 05:01:40;;;;;;;1.85;1.75;;;;;;;;;;5056255;27;98979;-73
2023/10/12 05:04:19;;;;;;;1.90;1.80;;;;;;;;;;5053625;27;100204;-73
2023/10/12 05:06:56;;;;;;;2.67;2.20;;;;;;;;;;5056412;27;100480;-73
2023/10/12 05:09:26;;;;;;;1.65;1.55;;;;;;;;;;5052464;27;101400;-73
2023/10/12 05:11:53;;;;;;;1.73;1.63;;;;;;;;;;5051087;27;98460;-73
2023/10/12 05:14:19;;;;;;;1.45;1.42;;;;;;;;;;5052876;27;99851;-73
2023/10/12 05:16:47;;;;;;;1.30;1.30;;;;;;;;;;5050113;27;100332;-72
2023/10/12 05:19:13;;;;;;;1.52;1.10;;;;;;;;;;5054101;27;98754;-72
2023/10/12 05:21:40;;;;;;;4.63;1.73;;;;;;;;;;5054896;27;99804;-72
2023/10/12 05:24:08;;;;;;;2.90;2.70;;;;;;;;;;5056798;27;99385;-72
2023/10/12 05:26:36;;;;;;;4.35;2.92;;;;;;;;;;5055281;27;98682;-73
2023/10/12 05:30:13;;;;;;;5.05;3.85;;;;;;;;;;5055058;27;99955;-74
2023/10/12 05:32:05;;;;;;;2.97;2.67;;;;;;;;;;5051281;27;99836;-72
2023/10/12 05:34:34;;;;;;;5.35;2.40;;;;;;;;;;5056549;27;99619;-72
2023/10/12 05:37:09;;;;;;;9.32;1.85;;;;;;;;;;5053813;27;99527;-72
2023/10/12 05:39:46;;;;;;;2.97;2.72;;;;;;;;;;5056995;27;100620;-72
2023/10/12 05:42:14;;;;;;;2.90;2.65;;;;;;;;;;5055407;27;99794;-72
2023/10/12 05:44:44;;;;;;;6.57;3.05;;;;;;;;;;5058917;27;100051;-72
2023/10/12 05:47:13;;;;;;;3.33;2.72;;;;;;;;;;5054420;27;99394;-72
2023/10/12 05:49:40;;;;;;;8.15;3.15;;;;;;;;;;5057007;27;99983;-72
2023/10/12 05:52:08;;;;;;;6.28;3.60;;;;;;;;;;5060947;27;98310;-73
2023/10/12 05:54:35;;;;;;;12.40;3.35;;;;;;;;;;5055099;27;98473;-73
2023/10/12 05:57:08;;;;;;;5.50;3.58;;;;;;;;;;5055395;27;99081;-72
2023/10/12 05:59:38;;;;;;;11.68;4.45;;;;;;;;;;5057846;27;98327;-72
2023/10/12 06:02:05;;;;;;;10.05;4.15;;;;;;;;;;5062314;27;99752;-72
2023/10/12 06:04:31;;;;;;;8.32;5.13;;;;;;;;;;5069620;27;98213;-72
2023/10/12 06:06:58;;;;;;;8.95;3.50;;;;;;;;;;5069938;27;98533;-72
2023/10/12 06:09:24;;;;;;;12.75;4.60;;;;;;;;;;5059341;27;99584;-72
2023/10/12 06:11:53;;;;;;;9.15;3.92;;;;;;;;;;5062235;27;98995;-73
2023/10/12 06:14:22;;;;;;;5.85;2.60;;;;;;;;;;5047901;27;98940;-73
2023/10/12 06:16:55;;;;;;;5.30;3.08;;;;;;;;;;5048598;27;98908;-73
2023/10/12 06:19:29;;;;;;;6.18;2.60;;;;;;;;;;5048627;27;98275;-73
2023/10/12 06:22:19;;;;;;;3.53;2.13;;;;;;;;;;5047955;27;99578;-72
2023/10/12 06:24:49;;;;;;;2.00;1.90;;;;;;;;;;5052479;27;100069;-73
2023/10/12 06:29:45;;;;;;;2.83;2.33;;;;;;;;;;5048314;27;99203;-73
2023/10/12 06:32:18;;;;;;;2.90;2.33;;;;;;;;;;5054771;27;100794;-73
2023/10/12 06:34:55;;;;;;;4.35;2.70;;;;;;;;;;5048769;27;99473;-73
2023/10/12 06:45:49;;;;;;;4.07;2.88;;;;;;;;;;5062000;27;100649;-73
2023/10/12 06:53:53;;;;;;;13.45;3.55;;;;;;;;;;5049409;27;99129;-74
2023/10/12 06:58:46;;;;;;;12.70;3.72;;;;;;;;;;5045784;27;100168;-74
2023/10/12 07:01:37;;;;;;;11.73;3.40;;;;;;;;;;5051945;27;98495;-74
2023/10/12 07:04:07;;;;;;;6.00;3.42;;;;;;;;;;5058507;27;99141;-74
2023/10/12 07:06:38;;;;;;;5.93;3.25;;;;;;;;;;5063700;27;100239;-73
2023/10/12 07:09:06;;;;;;;3.70;3.40;;;;;;;;;;5068809;27;98252;-73
2023/10/12 07:11:33;;;;;;;6.75;3.55;;;;;;;;;;5075994;27;99451;-73
2023/10/12 07:14:04;;;;;;;6.43;3.60;;;;;;;;;;5046313;27;99049;-73
2023/10/12 07:16:40;;;;;;;5.60;3.78;;;;;;;;;;5046451;27;98737;-73
2023/10/12 07:19:09;;;;;;;7.85;3.15;;;;;;;;;;5045849;27;100217;-74
2023/10/12 07:21:39;;;;;;;9.52;3.05;;;;;;;;;;5053326;27;99172;-74
2023/10/12 07:24:07;;;;;;;5.15;3.17;;;;;;;;;;5047863;27;99146;-74
2023/10/12 07:26:34;;;;;;;3.75;3.13;;;;;;;;;;5045443;27;100096;-73
2023/10/12 07:29:19;;;;;;;7.57;3.15;;;;;;;;;;5051270;27;98321;-73
2023/10/12 07:31:48;;;;;;;4.30;2.95;;;;;;;;;;5046422;27;100527;-72
2023/10/12 07:34:20;;;;;;;3.95;2.80;;;;;;;;;;5051240;27;99493;-74
2023/10/12 07:36:57;;;;;;;4.55;3.38;;;;;;;;;;5050362;27;99424;-73
2023/10/12 07:39:37;;;;;;;5.18;3.30;;;;;;;;;;5047680;27;100240;-74
2023/10/12 07:42:05;;;;;;;4.03;2.78;;;;;;;;;;5047673;27;98368;-73
2023/10/12 07:44:53;;;;;;;2.70;2.50;;;;;;;;;;5050639;27;100110;-73
2023/10/12 07:47:40;;;;;;;4.00;2.63;;;;;;;;;;5045891;27;100023;-74
2023/10/12 07:50:09;;;;;;;4.93;3.30;;;;;;;;;;5047534;27;100778;-74
2023/10/12 07:52:46;;;;;;;3.90;2.55;;;;;;;;;;5049265;27;100125;-72
2023/10/12 07:55:15;;;;;;;4.35;2.58;;;;;;;;;;5048650;27;99262;-74
2023/10/12 07:57:42;;;;;;;5.80;2.20;;;;;;;;;;5049954;27;99382;-73
2023/10/12 08:05:17;;;;;;;7.22;2.35;;;;;;;;;;5047478;27;99514;-74
2023/10/12 08:13:16;;;;;;;4.63;2.00;;;;;;;;;;5046654;27;99695;-75
2023/10/12 08:24:09;;;;;;;4.43;2.45;;;;;;;;;;5051541;27;99157;-75
2023/10/12 08:31:48;;;;;;;5.07;2.53;;;;;;;;;;5064972;27;99778;-74
2023/10/12 08:39:37;;;;;;;5.40;2.10;;;;;;;;;;5071667;27;99456;-77
2023/10/12 08:44:51;;;;;;;3.55;2.53;;;;;;;;;;5059289;27;99637;-75
2023/10/12 08:47:25;;;;;;;5.25;2.58;;;;;;;;;;5061567;27;98578;-75
2023/10/12 08:50:02;;;;;;;4.50;2.55;;;;;;;;;;5047967;27;100398;-75
2023/10/12 08:52:29;;;;;;;5.70;3.00;;;;;;;;;;5047652;27;98595;-75
2023/10/12 08:55:03;;;;;;;3.45;1.95;;;;;;;;;;5048489;27;99481;-74
2023/10/12 08:57:37;;;;;;;4.65;2.72;;;;;;;;;;5048445;27;100119;-74
2023/10/12 09:02:58;;;;;;;6.00;2.33;;;;;;;;;;5055205;27;99762;-74
2023/10/12 09:05:25;;;;;;;4.97;3.05;;;;;;;;;;5051359;27;100847;-74
2023/10/12 09:08:07;;;;;;;4.47;2.90;;;;;;;;;;5047122;27;99761;-74
2023/10/12 09:10:48;;;;;;;2.38;2.28;;;;;;;;;;5050553;27;99059;-73
2023/10/12 09:13:17;;;;;;;4.30;2.45;;;;;;;;;;5051393;27;99169;-76
2023/10/12 09:15:47;;;;;;;4.47;2.85;;;;;;;;;;5052624;27;98686;-74
2023/10/12 09:18:16;;;;;;;2.90;2.70;;;;;;;;;;5053675;27;99888;-74
2023/10/12 09:23:29;;;;;;;3.63;2.55;;;;;;;;;;5059717;27;99349;-75
2023/10/12 09:36:43;;;;;;;3.17;2.90;;;;;;;;;;5050448;27;99426;-73
2023/10/12 09:39:14;;;;;;;2.63;2.30;;;;;;;;;;5047971;27;99907;-74
2023/10/12 09:41:42;;;;;;;3.03;2.60;;;;;;;;;;5047579;27;100024;-74
2023/10/12 09:44:12;;;;;;;3.10;2.65;;;;;;;;;;5050956;27;99638;-74
2023/10/12 09:46:46;;;;;;;3.35;3.03;;;;;;;;;;5059689;27;99945;-74
2023/10/12 09:49:22;;;;;;;3.28;2.70;;;;;;;;;;5054779;27;98578;-75
2023/10/12 09:51:54;;;;;;;3.00;2.55;;;;;;;;;;5052927;27;98575;-74
2023/10/12 09:54:27;;;;;;;3.60;3.20;;;;;;;;;;5051583;27;99807;-74
2023/10/12 09:56:58;;;;;;;5.35;2.88;;;;;;;;;;5051296;27;99763;-74
2023/10/12 09:59:29;;;;;;;3.20;2.90;;;;;;;;;;5051900;27;102350;-74
2023/10/12 10:02:02;;;;;;;2.40;2.27;;;;;;;;;;5050376;27;98960;-74
2023/10/12 10:04:29;;;;;;;3.30;2.95;;;;;;;;;;5049675;27;100806;-74
2023/10/12 10:07:36;;;;;;;3.25;3.05;;;;;;;;;;5047637;27;100061;-74
2023/10/12 10:09:56;;;;;;;6.68;3.45;;;;;;;;;;5053717;27;98455;-74
2023/10/12 10:12:23;;;;;;;3.05;2.75;;;;;;;;;;5054403;27;98458;-75
2023/10/12 10:14:57;;;;;;;3.45;3.17;;;;;;;;;;5046227;27;99452;-74
2023/10/12 10:17:24;;;;;;;3.03;2.80;;;;;;;;;;5061176;27;99915;-74
2023/10/12 10:22:59;;;;;;;2.30;2.20;;;;;;;;;;5055640;27;99526;-75
2023/10/12 10:25:35;;;;;;;2.08;1.98;;;;;;;;;;5046530;27;99152;-74
2023/10/12 10:28:09;;;;;;;2.03;1.92;;;;;;;;;;5049702;27;99788;-73
2023/10/12 10:30:42;;;;;;;2.10;2.00;;;;;;;;;;5053421;27;98613;-74
2023/10/12 10:33:13;;;;;;;2.25;1.98;;;;;;;;;;5052298;27;100154;-74
2023/10/12 10:36:00;;;;;;;2.00;1.90;;;;;;;;;;5053230;27;99676;-73
2023/10/12 10:38:34;;;;;;;6.82;2.17;;;;;;;;;;5050212;27;99553;-73
2023/10/12 10:41:18;;;;;;;5.80;2.42;;;;;;;;;;5048555;27;99178;-76
2023/10/12 10:43:45;;;;;;;2.42;1.98;;;;;;;;;;5052528;27;99902;-74
2023/10/12 10:46:16;;;;;;;4.75;2.03;;;;;;;;;;5048478;27;99992;-74
2023/10/12 10:48:49;;;;;;;8.48;2.42;;;;;;;;;;5047848;27;100007;-74
2023/10/12 10:51:40;;;;;;;;;;;;;;;;;;5051510;27;98937;-74
2023/10/12 10:54:12;;;;;;;2.30;2.20;;;;;;;;;;5048796;27;129217;-74
2023/10/12 10:56:47;;;;;;;2.77;2.50;;;;;;;;;;5063061;27;100038;-74
2023/10/12 10:59:17;;;;;;;3.60;2.05;;;;;;;;;;5070593;27;98312;-74
2023/10/12 11:01:50;;;;;;;2.90;2.70;;;;;;;;;;5052083;27;100264;-74
2023/10/12 11:07:03;;;;;;;5.45;3.03;;;;;;;;;;5056638;27;99441;-73
2023/10/12 11:12:22;;;;;;;2.72;2.53;;;;;;;;;;5062342;27;98237;-74
2023/10/12 11:14:58;;;;;;;2.25;2.15;;;;;;;;;;5056291;27;98949;-73
2023/10/12 11:17:35;;;;;;;4.07;3.30;;;;;;;;;;5047251;27;99682;-73
2023/10/12 11:20:07;;;;;;;2.47;2.35;;;;;;;;;;5058024;27;98173;-73
2023/10/12 11:22:37;;;;;;;2.80;2.60;;;;;;;;;;5059031;27;100180;-73
2023/10/12 11:25:10;;;;;;;11.55;3.00;;;;;;;;;;5049412;27;100270;-73
2023/10/12 11:27:39;;;;;;;2.70;2.50;;;;;;;;;;5048249;27;98693;-73
2023/10/12 11:30:12;;;;;;;2.67;2.50;;;;;;;;;;5054815;27;100251;-72
2023/10/12 11:32:53;;;;;;;3.78;2.85;;;;;;;;;;5046787;27;99772;-74
2023/10/12 11:35:43;;;;;;;4.30;3.17;;;;;;;;;;5055471;27;100034;-73
2023/10/12 11:38:28;;;;;;;5.03;3.10;;;;;;;;;;5047804;27;99444;-73
2023/10/12 11:40:58;;;;;;;3.35;3.00;;;;;;;;;;5060379;27;100107;-73
2023/10/12 11:43:44;;;;;;;3.17;2.97;;;;;;;;;;5046411;27;98869;-73
2023/10/12 11:46:10;;;;;;;3.95;3.65;;;;;;;;;;5049823;27;100490;-72
2023/10/12 11:48:38;;;;;;;3.78;3.47;;;;;;;;;;5054228;27;99572;-73
2023/10/12 11:51:11;;;;;;;11.70;3.97;;;;;;;;;;5049062;27;99498;-72
2023/10/12 11:53:38;;;;;;;11.75;3.85;;;;;;;;;;5059324;27;99301;-72
2023/10/12 11:56:13;;;;;;;10.25;4.63;;;;;;;;;;5051600;27;100172;-73
2023/10/12 11:58:47;;;;;;;7.40;4.43;;;;;;;;;;5048111;27;100180;-71
2023/10/12 12:01:14;;;;;;;4.70;4.27;;;;;;;;;;5050128;27;99106;-72
2023/10/12 12:03:40;;;;;;;7.88;4.68;;;;;;;;;;5050003;27;98660;-73
2023/10/12 12:06:12;;;;;;;7.05;5.30;;;;;;;;;;5053263;27;100080;-73
2023/10/12 12:08:40;;;;;;;8.30;5.50;;;;;;;;;;5049898;27;98662;-73
2023/10/12 12:11:09;;;;;;;6.18;5.10;;;;;;;;;;5059335;27;99334;-74
2023/10/12 12:13:35;;;;;;;10.38;5.53;;;;;;;;;;5066892;27;98527;-75
2023/10/12 12:16:02;;;;;;;6.82;5.72;;;;;;;;;;5068648;27;98738;-75
2023/10/12 12:18:29;;;;;;;8.52;5.85;;;;;;;;;;5063596;27;100525;-73
2023/10/12 12:21:02;;;;;;;14.50;6.30;;;;;;;;;;5066868;27;98605;-73
2023/10/12 12:23:34;;;;;;;7.63;6.22;;;;;;;;;;5068242;27;98738;-72
2023/10/12 12:26:14;;;;;;;12.93;6.63;;;;;;;;;;5061111;27;99392;-73
2023/10/12 12:28:50;;;;;;;12.70;6.68;;;;;;;;;;5050127;27;98615;-72
2023/10/12 12:31:16;;;;;;;11.27;6.38;;;;;;;;;;5046496;27;99802;-71
2023/10/12 12:33:43;;;;;;;17.83;7.38;;;;;;;;;;5048073;27;98105;-71
2023/10/12 12:36:13;;;;;;;10.27;7.05;;;;;;;;;;5046650;27;98526;-72
2023/10/12 12:41:06;;;;;;;8.75;7.03;;;;;;;;;;5055288;27;98848;-71
2023/10/12 12:43:35;;;;;;;15.73;8.43;;;;;;;;;;5059995;27;99035;-71
2023/10/12 12:46:02;;;;;;;11.80;8.10;;;;;;;;;;5053285;27;98913;-71
2023/10/12 12:48:28;;;;;;;14.45;7.55;;;;;;;;;;5046817;27;98823;-71
2023/10/12 12:50:59;;;;;;;12.32;8.45;;;;;;;;;;5050115;27;99572;-73
2023/10/12 12:53:26;;;;;;;9.13;7.80;;;;;;;;;;5058884;27;98396;-71
2023/10/12 12:55:53;;;;;;;16.77;9.00;;;;;;;;;;5053019;27;98980;-73
2023/10/12 12:58:23;;;;;;;17.13;8.63;;;;;;;;;;5047086;27;99146;-70
2023/10/12 13:00:52;;;;;;;16.73;9.07;;;;;;;;;;5046768;27;98470;-72
2023/10/12 13:03:19;;;;;;;15.57;8.30;;;;;;;;;;5045888;27;98984;-72
2023/10/12 13:05:46;;;;;;;17.38;8.60;;;;;;;;;;5047162;27;99522;-73
2023/10/12 13:08:16;;;;;;;23.90;9.57;;;;;;;;;;5050352;27;98555;-73
2023/10/12 13:10:43;;;;;;;19.55;8.25;;;;;;;;;;5066760;27;98550;-73
2023/10/12 13:13:12;;;;;;;17.13;9.35;;;;;;;;;;5069673;27;98952;-72
2023/10/12 13:15:42;;;;;;;32.70;10.82;;;;;;;;;;5056408;27;98856;-73
2023/10/12 13:18:14;;;;;;;42.53;10.05;;;;;;;;;;5046101;27;100983;-72
2023/10/12 13:20:50;;;;;;;33.53;9.88;;;;;;;;;;5046697;27;99583;-73
2023/10/12 13:23:21;;;;;;;51.65;11.15;;;;;;;;;;5066807;27;99060;-72
2023/10/12 13:25:48;;;;;;;25.77;9.88;;;;;;;;;;5067049;27;99925;-73
2023/10/12 13:28:14;;;;;;;27.55;10.73;;;;;;;;;;5055965;27;98234;-73
2023/10/12 13:30:41;;;;;;;29.42;11.25;;;;;;;;;;5046389;27;99384;-72
2023/10/12 13:33:11;;;;;;;28.90;10.80;;;;;;;;;;5046483;27;99958;-73
2023/10/12 13:38:11;;;;;;;23.75;11.55;;;;;;;;;;5045554;27;99258;-73
2023/10/12 13:40:43;;;;;;;23.25;11.77;;;;;;;;;;5047651;27;100284;-72
2023/10/12 13:43:21;;;;;;;30.40;14.00;;;;;;;;;;5050483;27;98580;-72
2023/10/12 13:45:49;;;;;;;26.42;13.45;;;;;;;;;;5050563;27;99989;-74
2023/10/12 13:48:22;;;;;;;33.65;13.07;;;;;;;;;;5056703;27;98341;-72
2023/10/12 13:50:53;;;;;;;24.60;12.73;;;;;;;;;;5051930;27;98523;-72
2023/10/12 13:53:24;;;;;;;22.25;12.52;;;;;;;;;;5056498;27;99001;-73
2023/10/12 13:55:50;;;;;;;24.90;12.60;;;;;;;;;;5054092;27;98504;-73
2023/10/12 13:58:17;;;;;;;24.40;11.43;;;;;;;;;;5058019;27;98823;-73
2023/10/12 14:00:51;;;;;;;19.85;11.80;;;;;;;;;;5052998;27;98262;-73
2023/10/12 14:03:17;;;;;;;21.15;10.50;;;;;;;;;;5060187;27;99574;-74
2023/10/12 14:05:44;;;;;;;25.92;14.07;;;;;;;;;;5048813;27;99877;-73
2023/10/12 14:08:12;;;;;;;34.38;13.75;;;;;;;;;;5049376;27;98352;-73
2023/10/12 14:10:41;;;;;;;38.80;15.00;;;;;;;;;;5056303;27;98463;-73
2023/10/12 14:13:08;;;;;;;39.28;16.55;;;;;;;;;;5049848;27;100128;-74
2023/10/12 14:15:37;;;;;;;39.55;16.20;;;;;;;;;;5069810;27;98770;-74
2023/10/12 14:18:05;;;;;;;37.17;16.83;;;;;;;;;;5056049;27;98738;-74
2023/10/12 14:20:33;;;;;;;27.75;14.57;;;;;;;;;;5055416;27;98243;-75
2023/10/12 14:23:09;;;;;;;25.67;15.90;;;;;;;;;;5051664;27;100942;-74
2023/10/12 14:25:38;;;;;;;20.20;13.43;;;;;;;;;;5063982;27;99793;-74
2023/10/12 14:28:05;;;;;;;25.95;15.80;;;;;;;;;;5067910;27;98202;-73
2023/10/12 14:30:32;;;;;;;24.90;14.05;;;;;;;;;;5060563;27;98904;-74
2023/10/12 14:33:02;;;;;;;19.73;13.45;;;;;;;;;;5070763;27;99068;-73
2023/10/12 14:35:35;;;;;;;17.23;13.05;;;;;;;;;;5053282;27;98663;-74
2023/10/12 14:38:02;;;;;;;18.63;13.02;;;;;;;;;;5050663;27;98652;-74
2023/10/12 14:40:31;;;;;;;22.92;11.55;;;;;;;;;;5055257;27;100341;-74
2023/10/12 14:43:10;;;;;;;15.40;11.05;;;;;;;;;;5068648;27;98672;-74
2023/10/12 14:45:48;;;;;;;16.10;10.88;;;;;;;;;;5058232;27;99928;-74
2023/10/12 14:48:17;;;;;;;19.15;10.70;;;;;;;;;;5062698;27;98525;-74
2023/10/12 14:50:49;;;;;;;12.00;9.05;;;;;;;;;;5077679;27;99644;-75
2023/10/12 14:53:21;;;;;;;11.25;9.05;;;;;;;;;;5049948;27;99474;-74
2023/10/12 14:55:48;;;;;;;9.73;7.72;;;;;;;;;;5058688;27;98186;-73
2023/10/12 14:58:17;;;;;;;13.57;8.18;;;;;;;;;;5068764;27;98529;-74
2023/10/12 15:00:44;;;;;;;12.82;8.02;;;;;;;;;;5055325;27;100059;-73
2023/10/12 15:03:11;;;;;;;10.32;8.07;;;;;;;;;;5050481;27;99516;-74
2023/10/12 15:05:37;;;;;;;10.25;7.68;;;;;;;;;;5059437;27;99961;-74
2023/10/12 15:08:07;;;;;;;10.00;7.28;;;;;;;;;;5089960;27;98169;-75
2023/10/12 15:10:46;;;;;;;7.55;6.85;;;;;;;;;;5065148;27;100885;-74
2023/10/12 15:13:13;;;;;;;10.38;6.55;;;;;;;;;;5048000;27;99852;-75
2023/10/12 15:15:45;;;;;;;7.18;6.55;;;;;;;;;;5063534;27;98241;-75
2023/10/12 15:18:15;;;;;;;6.88;6.22;;;;;;;;;;5067245;27;98351;-75
2023/10/12 15:20:44;;;;;;;10.63;7.15;;;;;;;;;;5062399;27;99918;-75
2023/10/12 15:23:11;;;;;;;7.22;6.25;;;;;;;;;;5074926;27;98599;-74
2023/10/12 15:25:38;;;;;;;12.27;6.30;;;;;;;;;;5092635;27;99415;-76
2023/10/12 15:28:06;;;;;;;7.95;7.03;;;;;;;;;;5069893;27;98535;-74
2023/10/12 15:30:33;;;;;;;8.45;7.43;;;;;;;;;;5050001;27;99446;-76
2023/10/12 15:33:00;;;;;;;8.50;7.18;;;;;;;;;;5058655;27;99516;-76
2023/10/12 15:35:28;;;;;;;11.15;8.15;;;;;;;;;;5057590;27;98297;-75
2023/10/12 15:37:57;;;;;;;18.33;8.52;;;;;;;;;;5049308;27;99606;-77
2023/10/12 15:40:27;;;;;;;13.50;8.98;;;;;;;;;;5056366;27;99911;-76
2023/10/12 15:42:59;;;;;;;11.82;8.90;;;;;;;;;;5046543;27;99825;-76
2023/10/12 15:45:26;;;;;;;13.77;9.63;;;;;;;;;;5046831;27;100169;-74
2023/10/12 15:47:55;;;;;;;16.45;9.77;;;;;;;;;;5051917;27;100171;-76
2023/10/12 15:50:22;;;;;;;15.85;11.02;;;;;;;;;;5046296;27;99968;-78
2023/10/12 15:52:49;;;;;;;18.67;10.35;;;;;;;;;;5044497;27;100718;-77
2023/10/12 15:55:18;;;;;;;13.82;10.23;;;;;;;;;;5049970;27;98247;-77
2023/10/12 15:57:49;;;;;;;17.45;11.75;;;;;;;;;;5050253;27;99018;-78
2023/10/12 16:00:22;;;;;;;20.73;12.45;;;;;;;;;;5052985;27;99533;-78
2023/10/12 16:02:49;;;;;;;18.00;12.32;;;;;;;;;;5047914;27;98788;-74
2023/10/12 16:05:16;;;;;;;19.75;11.90;;;;;;;;;;5049381;27;100332;-74
2023/10/12 16:07:43;;;;;;;18.13;11.77;;;;;;;;;;5049287;27;100758;-76
2023/10/12 16:10:09;;;;;;;21.20;13.15;;;;;;;;;;5063086;27;99008;-76
2023/10/12 16:12:36;;;;;;;20.77;13.68;;;;;;;;;;5053491;27;99906;-75
2023/10/12 16:15:03;;;;;;;20.08;12.70;;;;;;;;;;5050937;27;99150;-76
2023/10/12 16:17:29;;;;;;;17.65;13.13;;;;;;;;;;5053100;27;99670;-76
2023/10/12 16:19:57;;;;;;;20.95;13.57;;;;;;;;;;5066031;27;100437;-76
2023/10/12 16:22:23;;;;;;;28.67;15.00;;;;;;;;;;5061886;27;99591;-76
2023/10/12 16:24:51;;;;;;;23.48;15.18;;;;;;;;;;5051308;27;99333;-76
2023/10/12 16:27:18;;;;;;;29.67;16.13;;;;;;;;;;5047936;27;98981;-79
2023/10/12 16:29:44;;;;;;;22.63;15.38;;;;;;;;;;5053290;27;99678;-76
2023/10/12 16:32:25;;;;;;;24.92;14.25;;;;;;;;;;5044616;27;100531;-76
2023/10/12 16:34:52;;;;;;;30.63;16.15;;;;;;;;;;5051523;27;99136;-78
2023/10/12 16:37:18;;;;;;;33.47;21.63;;;;;;;;;;5051362;27;99682;-77
2023/10/12 16:39:45;;;;;;;21.73;16.92;;;;;;;;;;5054383;27;100551;-77
2023/10/12 16:42:12;;;;;;;29.13;17.60;;;;;;;;;;5048728;27;98572;-77
2023/10/12 16:44:39;;;;;;;32.17;17.80;;;;;;;;;;5057427;27;98705;-76
2023/10/12 16:47:06;;;;;;;31.33;17.70;;;;;;;;;;5052868;27;99937;-75
2023/10/12 16:49:33;;;;;;;33.47;18.23;;;;;;;;;;5048701;27;98594;-76
2023/10/12 16:52:00;;;;;;;33.95;18.95;;;;;;;;;;5059635;27;99706;-75
2023/10/12 16:54:27;;;;;;;35.58;19.17;;;;;;;;;;5049441;27;98310;-74
2023/10/12 16:56:53;;;;;;;35.47;19.30;;;;;;;;;;5052151;27;100069;-75
2023/10/12 16:59:20;;;;;;;34.60;20.60;;;;;;;;;;5058740;27;99987;-77
2023/10/12 17:01:47;;;;;;;34.08;20.38;;;;;;;;;;5053452;27;98416;-75